Time;durP1;ratioP1;P1;durP2;ratioP2;P2;SDS_P1;SDS_P2;PMS_P1;PMS_P2;Temp;Humidity;BMP_temperature;BMP_pressure;BME280_temperature;BME280_humidity;BME280_pressure;Samples;Min_cycle;Max_cycle;Signal;HPM_P1;HPM_P2
2022/09/07 00:02:03;;;;;;;5.33;4.83;;;19.40;89.10;;;;;;5014546;28;20441;-52
2022/09/07 00:04:30;;;;;;;6.87;4.90;;;19.40;88.70;;;;;;5013989;28;20475;-52
2022/09/07 00:06:57;;;;;;;6.30;5.20;;;19.40;88.60;;;;;;5015631;28;20486;-52
2022/09/07 00:09:24;;;;;;;4.50;4.10;;;19.40;88.40;;;;;;5014950;28;20467;-51
2022/09/07 00:11:51;;;;;;;4.83;4.43;;;19.50;88.30;;;;;;5014300;28;20452;-51
2022/09/07 00:14:17;;;;;;;6.53;5.10;;;19.50;88.20;;;;;;5020623;28;20466;-52
2022/09/07 00:16:44;;;;;;;6.33;4.80;;;19.50;88.20;;;;;;5016684;28;20459;-52
2022/09/07 00:19:11;;;;;;;6.70;4.40;;;19.50;88.00;;;;;;5017461;28;20467;-51
2022/09/07 00:21:37;;;;;;;6.17;4.93;;;19.40;87.70;;;;;;5018916;28;20467;-52
2022/09/07 00:24:04;;;;;;;4.90;4.50;;;19.40;88.10;;;;;;5022805;28;20471;-53
2022/09/07 00:26:31;;;;;;;6.43;4.90;;;19.40;88.00;;;;;;5013415;28;20534;-53
2022/09/07 00:29:00;;;;;;;5.53;5.03;;;19.40;88.30;;;;;;5014787;28;20471;-53
2022/09/07 00:31:29;;;;;;;5.40;4.90;;;19.40;88.30;;;;;;5014691;28;20514;-52
2022/09/07 00:33:58;;;;;;;5.37;4.60;;;19.40;88.50;;;;;;5020044;28;20458;-52
2022/09/07 00:36:25;;;;;;;5.17;4.57;;;19.40;88.60;;;;;;5019023;28;20709;-52
2022/09/07 00:38:53;;;;;;;5.57;4.97;;;19.40;88.60;;;;;;5028114;28;20478;-52
2022/09/07 00:41:21;;;;;;;6.23;5.07;;;19.40;88.50;;;;;;5015689;28;20470;-52
2022/09/07 00:43:56;;;;;;;6.13;5.60;;;19.40;88.50;;;;;;5019254;28;20470;-52
2022/09/07 00:46:28;;;;;;;5.23;4.83;;;19.30;88.70;;;;;;5024937;28;20464;-52
2022/09/07 00:49:11;;;;;;;7.47;6.40;;;19.20;89.60;;;;;;5017760;28;20843;-52
2022/09/07 00:51:52;;;;;;;9.60;5.40;;;19.20;89.80;;;;;;5019065;28;20491;-52
2022/09/07 00:54:26;;;;;;;8.30;6.23;;;19.20;89.80;;;;;;5016167;28;20468;-52
2022/09/07 00:56:53;;;;;;;7.10;5.23;;;19.30;89.60;;;;;;5024625;28;20483;-53
2022/09/07 00:59:25;;;;;;;9.30;6.87;;;19.20;89.80;;;;;;5020054;28;20464;-52
2022/09/07 01:01:52;;;;;;;8.13;5.60;;;19.30;89.80;;;;;;5020622;28;20871;-53
2022/09/07 01:04:20;;;;;;;7.97;6.00;;;19.30;89.80;;;;;;5021495;28;20459;-52
2022/09/07 01:06:48;;;;;;;6.17;5.60;;;19.30;89.80;;;;;;5013662;28;20466;-52
2022/09/07 01:09:18;;;;;;;6.63;6.00;;;19.30;89.70;;;;;;5017077;28;20483;-52
2022/09/07 01:11:49;;;;;;;6.77;5.97;;;19.30;89.60;;;;;;5017662;28;20486;-52
2022/09/07 01:14:24;;;;;;;7.53;6.13;;;19.30;89.80;;;;;;5011784;28;20460;-51
2022/09/07 01:17:17;;;;;;;7.60;6.00;;;19.40;89.70;;;;;;5012335;28;20456;-52
2022/09/07 01:20:07;;;;;;;12.00;7.30;;;19.40;89.80;;;;;;5012175;28;20491;-52
2022/09/07 01:23:03;;;;;;;7.23;6.30;;;19.30;89.80;;;;;;4998220;28;20921;-52
2022/09/07 01:25:50;;;;;;;8.43;6.20;;;19.40;89.70;;;;;;5013854;28;20467;-52
2022/09/07 01:28:20;;;;;;;8.53;6.83;;;19.30;89.80;;;;;;5014211;28;20460;-52
2022/09/07 01:30:57;;;;;;;7.30;6.60;;;19.30;89.80;;;;;;5021994;28;20545;-52
2022/09/07 01:33:50;;;;;;;7.43;6.73;;;19.30;89.80;;;;;;5015627;28;20964;-52
2022/09/07 01:36:46;;;;;;;7.67;6.80;;;19.30;89.80;;;;;;5020869;28;20457;-52
2022/09/07 01:39:14;;;;;;;7.40;6.50;;;19.30;89.80;;;;;;5015758;28;20462;-52
2022/09/07 01:42:06;;;;;;;8.53;6.37;;;19.40;89.40;;;;;;5006287;28;20471;-52
2022/09/07 01:44:45;;;;;;;7.63;6.10;;;19.50;89.00;;;;;;5016633;28;20474;-52
2022/09/07 01:47:21;;;;;;;8.70;7.70;;;19.40;89.60;;;;;;5015895;28;20467;-52
2022/09/07 01:49:59;;;;;;;6.43;5.93;;;19.20;89.80;;;;;;5014155;28;20474;-52
2022/09/07 01:52:41;;;;;;;8.13;6.77;;;19.10;89.80;;;;;;5017099;28;20469;-52
2022/09/07 01:55:25;;;;;;;6.70;6.00;;;19.10;89.80;;;;;;5009214;28;20458;-52
2022/09/07 01:58:18;;;;;;;9.63;6.80;;;19.10;89.80;;;;;;5012088;28;20526;-52
2022/09/07 02:00:52;;;;;;;6.60;6.00;;;19.00;89.80;;;;;;5018170;28;20455;-53
2022/09/07 02:03:36;;;;;;;7.30;6.60;;;18.80;89.80;;;;;;5014086;28;20820;-52
2022/09/07 02:06:23;;;;;;;9.30;7.23;;;18.70;89.80;;;;;;5016430;28;20466;-52
2022/09/07 02:08:59;;;;;;;7.83;7.03;;;18.60;89.80;;;;;;5005021;28;21476;-53
2022/09/07 02:11:41;;;;;;;7.77;6.97;;;18.60;89.80;;;;;;5013853;28;20492;-53
2022/09/07 02:14:19;;;;;;;7.70;6.40;;;18.60;89.80;;;;;;5014576;28;20459;-53
2022/09/07 02:17:12;;;;;;;8.20;6.87;;;18.60;89.80;;;;;;5019045;28;20832;-52
2022/09/07 02:19:48;;;;;;;8.83;6.87;;;18.60;89.80;;;;;;5017865;28;20459;-52
2022/09/07 02:22:21;;;;;;;11.40;7.03;;;18.60;89.80;;;;;;5021679;28;20972;-53
2022/09/07 02:24:52;;;;;;;10.83;6.80;;;18.60;89.80;;;;;;5015349;28;20464;-52
2022/09/07 02:27:25;;;;;;;8.43;6.70;;;18.60;89.80;;;;;;5016675;28;20480;-53
2022/09/07 02:29:53;;;;;;;8.30;6.07;;;18.60;89.80;;;;;;5012180;28;20977;-52
2022/09/07 02:32:19;;;;;;;6.93;5.57;;;18.60;89.80;;;;;;5009709;28;20455;-52
2022/09/07 02:34:46;;;;;;;10.30;5.77;;;18.60;89.80;;;;;;5012990;28;20881;-52
2022/09/07 02:37:15;;;;;;;5.40;4.90;;;18.60;89.80;;;;;;5015013;28;20460;-53
2022/09/07 02:39:41;;;;;;;6.13;4.73;;;18.60;89.80;;;;;;5003712;28;20452;-53
2022/09/07 02:42:08;;;;;;;5.50;4.53;;;18.60;89.80;;;;;;5016935;28;21012;-52
2022/09/07 02:44:38;;;;;;;5.67;4.90;;;18.60;89.80;;;;;;5017867;28;20884;-53
2022/09/07 02:47:05;;;;;;;5.87;5.30;;;18.70;89.80;;;;;;5013076;28;20872;-52
2022/09/07 02:50:07;;;;;;;5.63;5.13;;;18.70;89.80;;;;;;5010531;28;20460;-51
2022/09/07 02:52:40;;;;;;;6.53;5.03;;;18.60;89.80;;;;;;5032440;28;20520;-52
2022/09/07 02:55:32;;;;;;;8.77;5.63;;;18.60;89.80;;;;;;5015581;28;20648;-52
2022/09/07 02:58:13;;;;;;;8.43;6.10;;;18.70;89.80;;;;;;5012881;28;20483;-53
2022/09/07 03:01:06;;;;;;;5.83;5.33;;;18.90;89.80;;;;;;5015894;28;20471;-53
2022/09/07 03:03:50;;;;;;;5.83;5.33;;;19.10;89.80;;;;;;5014382;28;20582;-53
2022/09/07 03:06:35;;;;;;;7.90;6.13;;;19.10;89.80;;;;;;5016665;28;20466;-53
2022/09/07 03:09:11;;;;;;;16.00;8.30;;;19.10;89.80;;;;;;5014429;28;20464;-53
2022/09/07 03:11:38;;;;;;;6.20;5.57;;;19.20;89.80;;;;;;5013721;28;21028;-53
2022/09/07 03:14:17;;;;;;;7.63;5.27;;;19.20;89.80;;;;;;5011244;28;20471;-53
2022/09/07 03:16:45;;;;;;;8.70;6.43;;;19.20;89.80;;;;;;5017601;28;20451;-53
2022/09/07 03:19:11;;;;;;;7.63;6.93;;;19.10;89.80;;;;;;5020721;28;20842;-53
2022/09/07 03:21:38;;;;;;;9.50;7.10;;;19.10;89.80;;;;;;5014807;28;20857;-53
2022/09/07 03:24:05;;;;;;;6.70;6.10;;;19.10;89.80;;;;;;5013803;28;20452;-53
2022/09/07 03:26:32;;;;;;;10.93;7.37;;;19.20;89.80;;;;;;5015128;28;20879;-53
2022/09/07 03:28:59;;;;;;;7.70;7.00;;;19.20;89.80;;;;;;5011299;28;20467;-53
2022/09/07 03:31:26;;;;;;;7.60;6.83;;;19.20;89.80;;;;;;5013253;28;21032;-53
2022/09/07 03:33:54;;;;;;;6.40;5.80;;;19.00;89.80;;;;;;5019723;28;21031;-53
2022/09/07 03:36:20;;;;;;;7.83;7.03;;;19.00;89.80;;;;;;5016533;28;20464;-53
2022/09/07 03:38:47;;;;;;;7.30;6.60;;;19.10;89.80;;;;;;5010006;28;20462;-53
2022/09/07 03:41:14;;;;;;;7.30;6.57;;;19.10;89.80;;;;;;5013960;28;20474;-53
2022/09/07 03:43:41;;;;;;;8.57;6.10;;;19.20;89.80;;;;;;5013261;28;20467;-53
2022/09/07 03:46:09;;;;;;;7.10;6.40;;;19.20;89.80;;;;;;5013396;28;20941;-53
2022/09/07 03:48:38;;;;;;;7.40;6.70;;;19.20;89.80;;;;;;5011758;28;20470;-53
2022/09/07 03:51:07;;;;;;;7.50;6.80;;;19.30;89.80;;;;;;5012207;28;20492;-53
2022/09/07 03:53:38;;;;;;;7.03;6.00;;;19.20;89.80;;;;;;5014960;28;20459;-53
2022/09/07 03:56:09;;;;;;;6.83;6.23;;;19.30;89.80;;;;;;5015224;28;20456;-53
2022/09/07 03:58:36;;;;;;;6.47;5.77;;;19.30;89.80;;;;;;5012401;28;20491;-53
2022/09/07 04:01:08;;;;;;;7.07;6.27;;;19.20;89.80;;;;;;5013536;28;20464;-53
2022/09/07 04:03:35;;;;;;;8.17;6.70;;;19.20;89.80;;;;;;5008890;28;20468;-54
2022/09/07 04:06:03;;;;;;;7.50;6.10;;;19.20;89.80;;;;;;5011710;28;20471;-54
2022/09/07 04:08:32;;;;;;;9.87;6.70;;;19.20;89.80;;;;;;5009934;28;20464;-53
2022/09/07 04:11:01;;;;;;;8.60;6.83;;;19.20;89.80;;;;;;5013375;28;20484;-53
2022/09/07 04:13:29;;;;;;;7.80;5.90;;;19.20;89.80;;;;;;5015169;28;20463;-53
2022/09/07 04:15:56;;;;;;;7.43;6.73;;;19.30;89.80;;;;;;5016599;28;20455;-54
2022/09/07 04:18:24;;;;;;;7.83;7.13;;;19.10;89.80;;;;;;5009998;28;20466;-53
2022/09/07 04:20:50;;;;;;;8.87;7.40;;;19.00;89.80;;;;;;5014468;28;20455;-54
2022/09/07 04:23:18;;;;;;;9.40;6.23;;;19.00;89.80;;;;;;5009560;28;20943;-53
2022/09/07 04:25:49;;;;;;;7.50;6.60;;;19.10;89.80;;;;;;5014359;28;20470;-53
2022/09/07 04:28:18;;;;;;;7.33;6.20;;;19.10;89.80;;;;;;5013560;28;20471;-53
2022/09/07 04:30:45;;;;;;;8.63;6.97;;;19.00;89.80;;;;;;5006286;28;20501;-53
2022/09/07 04:33:13;;;;;;;8.03;7.23;;;19.00;89.80;;;;;;5010842;28;20518;-54
2022/09/07 04:35:41;;;;;;;8.43;5.90;;;18.90;89.80;;;;;;5013547;28;20839;-53
2022/09/07 04:38:12;;;;;;;6.40;5.80;;;18.90;89.80;;;;;;5009906;28;20886;-54
2022/09/07 04:40:39;;;;;;;6.00;5.40;;;19.00;89.80;;;;;;5013597;28;20498;-53
2022/09/07 04:43:07;;;;;;;6.20;5.47;;;19.00;89.80;;;;;;5014481;28;20828;-54
2022/09/07 04:45:35;;;;;;;5.30;4.80;;;19.00;89.80;;;;;;5012982;28;20464;-54
2022/09/07 04:48:03;;;;;;;6.23;5.60;;;19.00;89.60;;;;;;5009289;28;20496;-53
2022/09/07 04:50:30;;;;;;;9.53;5.40;;;19.00;89.80;;;;;;5009134;28;20464;-54
2022/09/07 04:52:57;;;;;;;8.50;5.70;;;19.00;89.80;;;;;;5013029;28;20459;-54
2022/09/07 04:55:24;;;;;;;6.90;5.40;;;18.90;89.80;;;;;;5015459;28;20850;-54
2022/09/07 04:57:51;;;;;;;6.97;5.43;;;18.90;89.80;;;;;;5012687;28;20492;-53
2022/09/07 05:00:18;;;;;;;6.60;5.93;;;18.80;89.80;;;;;;5009740;28;20972;-53
2022/09/07 05:02:45;;;;;;;6.40;5.50;;;18.90;89.80;;;;;;5005115;28;20477;-53
2022/09/07 05:05:12;;;;;;;7.37;6.67;;;18.80;89.60;;;;;;5010615;28;20554;-53
2022/09/07 05:07:38;;;;;;;6.07;5.43;;;18.70;89.80;;;;;;5010865;28;20471;-54
2022/09/07 05:10:05;;;;;;;7.57;5.97;;;18.70;89.80;;;;;;5018378;28;20538;-54
2022/09/07 05:12:32;;;;;;;7.50;5.30;;;18.60;89.80;;;;;;5014888;28;20492;-54
2022/09/07 05:14:59;;;;;;;5.87;5.37;;;18.70;89.80;;;;;;5016093;28;20453;-54
2022/09/07 05:17:26;;;;;;;8.00;6.17;;;18.70;89.80;;;;;;5015340;28;20463;-53
2022/09/07 05:19:53;;;;;;;8.10;5.37;;;18.70;89.80;;;;;;5016616;28;20455;-54
2022/09/07 05:22:21;;;;;;;6.80;6.20;;;18.70;89.80;;;;;;5015799;28;20474;-54
2022/09/07 05:24:47;;;;;;;6.27;5.50;;;18.70;89.80;;;;;;5019266;28;20467;-54
2022/09/07 05:27:14;;;;;;;9.90;6.57;;;18.70;89.80;;;;;;5012301;28;20997;-54
2022/09/07 05:29:41;;;;;;;6.30;5.80;;;18.80;89.80;;;;;;5011853;28;20467;-54
2022/09/07 05:32:28;;;;;;;6.90;6.10;;;18.80;89.80;;;;;;5017848;28;20494;-54
2022/09/07 05:34:55;;;;;;;7.70;6.00;;;18.80;89.80;;;;;;5015365;28;20456;-54
2022/09/07 05:37:22;;;;;;;7.70;6.33;;;18.80;89.80;;;;;;5016224;28;20468;-54
2022/09/07 05:39:50;;;;;;;8.57;6.47;;;18.90;89.80;;;;;;5020382;28;20459;-54
2022/09/07 05:42:17;;;;;;;9.13;6.70;;;18.90;89.80;;;;;;5015934;28;20467;-54
2022/09/07 05:44:44;;;;;;;7.20;6.50;;;18.80;89.80;;;;;;5023340;28;20462;-54
2022/09/07 05:47:11;;;;;;;10.63;7.00;;;18.80;89.80;;;;;;5017211;28;20532;-54
2022/09/07 05:49:38;;;;;;;8.57;7.13;;;18.80;89.80;;;;;;5017133;28;20829;-54
2022/09/07 05:52:05;;;;;;;8.00;7.20;;;18.90;89.80;;;;;;5017404;28;20475;-54
2022/09/07 05:54:32;;;;;;;8.27;7.20;;;18.90;89.80;;;;;;5016046;28;20464;-54
2022/09/07 05:56:59;;;;;;;8.60;7.63;;;18.90;89.80;;;;;;5019105;28;20464;-54
2022/09/07 05:59:26;;;;;;;13.10;8.07;;;19.00;89.80;;;;;;5017272;28;20468;-54
2022/09/07 06:01:52;;;;;;;11.10;8.03;;;19.00;89.80;;;;;;5018659;28;20450;-54
2022/09/07 06:04:19;;;;;;;13.20;8.10;;;19.00;89.80;;;;;;5023371;28;20954;-54
2022/09/07 06:06:46;;;;;;;8.47;7.50;;;19.00;89.80;;;;;;5015528;28;20475;-54
2022/09/07 06:09:46;;;;;;;10.23;8.50;;;19.10;89.80;;;;;;5027169;28;20459;-53
2022/09/07 06:12:33;;;;;;;13.90;8.70;;;19.20;89.80;;;;;;5014320;28;20825;-50
2022/09/07 06:15:00;;;;;;;10.80;9.10;;;19.20;89.80;;;;;;5015071;28;20483;-50
2022/09/07 06:17:28;;;;;;;9.10;7.83;;;19.20;89.80;;;;;;5016902;28;20471;-50
2022/09/07 06:19:55;;;;;;;11.70;8.73;;;19.20;89.80;;;;;;5022239;28;20455;-50
2022/09/07 06:22:22;;;;;;;9.70;8.70;;;19.20;89.80;;;;;;5013426;28;20468;-51
2022/09/07 06:24:51;;;;;;;10.13;8.67;;;19.30;89.80;;;;;;5018830;28;20464;-51
2022/09/07 06:27:18;;;;;;;12.20;8.47;;;19.30;89.80;;;;;;5024660;28;20456;-50
2022/09/07 06:29:44;;;;;;;9.60;8.40;;;19.40;89.80;;;;;;5016201;28;20469;-50
2022/09/07 06:32:11;;;;;;;9.67;8.67;;;19.40;89.80;;;;;;5012938;28;20488;-50
2022/09/07 06:34:58;;;;;;;14.30;8.50;;;19.40;89.80;;;;;;5019490;28;20941;-51
2022/09/07 06:37:24;;;;;;;9.07;8.17;;;19.40;89.80;;;;;;5008855;28;20451;-50
2022/09/07 06:39:51;;;;;;;12.20;8.73;;;19.40;89.80;;;;;;5023526;28;20466;-48
2022/09/07 06:42:18;;;;;;;9.50;7.80;;;19.40;89.80;;;;;;5036569;28;20476;-47
2022/09/07 06:44:45;;;;;;;9.57;7.53;;;19.50;89.80;;;;;;5029457;28;20458;-47
2022/09/07 06:47:11;;;;;;;8.77;7.87;;;19.40;89.80;;;;;;5031136;28;20501;-48
2022/09/07 06:49:38;;;;;;;8.63;7.43;;;19.40;89.80;;;;;;5025495;28;20475;-50
2022/09/07 06:52:05;;;;;;;8.70;7.80;;;19.50;89.80;;;;;;5013756;28;20510;-50
2022/09/07 06:54:32;;;;;;;7.90;6.80;;;19.60;89.80;;;;;;5036261;28;20456;-49
2022/09/07 06:57:18;;;;;;;7.20;6.50;;;19.70;89.80;;;;;;5030701;28;20457;-49
2022/09/07 06:59:45;;;;;;;6.13;5.60;;;19.70;89.80;;;;;;5026568;28;20467;-50
2022/09/07 07:02:13;;;;;;;15.30;6.97;;;19.70;89.80;;;;;;5026221;28;20463;-49
2022/09/07 07:04:40;;;;;;;10.57;6.83;;;19.70;89.80;;;;;;5028593;28;20543;-49
2022/09/07 07:07:12;;;;;;;6.60;5.80;;;19.70;89.80;;;;;;5010995;28;20472;-49
2022/09/07 07:09:40;;;;;;;6.70;5.93;;;19.70;89.80;;;;;;5029922;28;20463;-50
2022/09/07 07:12:07;;;;;;;7.97;5.50;;;19.70;89.80;;;;;;5027812;28;20484;-49
2022/09/07 07:14:34;;;;;;;6.40;5.63;;;19.80;89.80;;;;;;5028354;28;20451;-50
2022/09/07 07:17:07;;;;;;;7.10;5.70;;;19.80;89.80;;;;;;5032043;28;20447;-50
2022/09/07 07:19:33;;;;;;;6.50;5.90;;;19.80;89.80;;;;;;5029291;28;20441;-50
2022/09/07 07:22:00;;;;;;;6.70;5.73;;;19.90;89.80;;;;;;5026589;28;20467;-50
2022/09/07 07:24:47;;;;;;;7.77;5.80;;;19.90;89.80;;;;;;5029071;28;20474;-49
2022/09/07 07:27:14;;;;;;;7.33;5.50;;;20.00;89.80;;;;;;5022591;28;20471;-49
2022/09/07 07:29:40;;;;;;;5.50;5.00;;;20.00;89.80;;;;;;5017524;28;20459;-49
2022/09/07 07:32:07;;;;;;;6.93;4.87;;;20.10;89.80;;;;;;5011850;28;20499;-50
2022/09/07 07:34:34;;;;;;;5.33;4.63;;;20.20;89.80;;;;;;5015962;28;20455;-49
2022/09/07 07:37:01;;;;;;;5.30;4.17;;;20.30;89.80;;;;;;5014220;28;20464;-49
2022/09/07 07:39:27;;;;;;;7.27;4.70;;;20.30;89.80;;;;;;5016188;28;20477;-50
2022/09/07 07:42:14;;;;;;;5.53;3.83;;;20.40;89.80;;;;;;5015013;28;20451;-49
2022/09/07 07:44:41;;;;;;;4.90;3.97;;;20.50;89.80;;;;;;5022667;28;20476;-51
2022/09/07 07:47:08;;;;;;;8.50;4.20;;;20.60;89.10;;;;;;5016085;28;20463;-50
2022/09/07 07:49:35;;;;;;;5.93;3.83;;;20.60;89.00;;;;;;5021107;28;20516;-51
2022/09/07 07:52:02;;;;;;;4.33;3.93;;;20.60;89.00;;;;;;5014658;28;20527;-49
2022/09/07 07:54:49;;;;;;;4.67;4.23;;;20.70;89.00;;;;;;5013428;28;21025;-49
2022/09/07 07:57:17;;;;;;;5.70;4.23;;;20.80;88.50;;;;;;5018374;28;20570;-50
2022/09/07 07:59:44;;;;;;;5.60;4.10;;;20.90;87.80;;;;;;5015374;28;20470;-50
2022/09/07 08:02:14;;;;;;;6.87;5.13;;;21.00;87.70;;;;;;5009954;28;20525;-49
2022/09/07 08:04:41;;;;;;;6.37;5.57;;;21.10;87.30;;;;;;5013749;28;20472;-48
2022/09/07 08:07:10;;;;;;;5.73;5.23;;;21.20;87.20;;;;;;5018033;28;20459;-50
2022/09/07 08:09:42;;;;;;;7.07;5.77;;;21.20;87.20;;;;;;5017935;28;20475;-50
2022/09/07 08:12:18;;;;;;;6.43;5.23;;;21.30;86.60;;;;;;5022297;28;20522;-49
2022/09/07 08:14:47;;;;;;;6.20;5.30;;;21.30;86.10;;;;;;5023095;28;20454;-49
2022/09/07 08:17:15;;;;;;;7.30;5.33;;;21.40;86.30;;;;;;5025714;28;20570;-49
2022/09/07 08:19:42;;;;;;;5.90;5.40;;;21.50;85.90;;;;;;5026063;28;20516;-49
2022/09/07 08:22:10;;;;;;;6.70;6.10;;;21.60;85.40;;;;;;5014194;28;20534;-51
2022/09/07 08:24:37;;;;;;;6.40;5.27;;;21.60;84.70;;;;;;5012938;28;20452;-51
2022/09/07 08:27:04;;;;;;;5.20;4.20;;;21.80;85.40;;;;;;5013244;28;21074;-49
2022/09/07 08:29:30;;;;;;;7.93;4.90;;;21.80;85.00;;;;;;5013789;28;20452;-49
2022/09/07 08:32:05;;;;;;;6.57;4.80;;;21.80;84.40;;;;;;5012516;28;20509;-50
2022/09/07 08:34:35;;;;;;;7.63;4.57;;;21.90;84.20;;;;;;5019241;28;20526;-49
2022/09/07 08:37:02;;;;;;;7.93;4.53;;;21.90;84.10;;;;;;5015580;28;20455;-49
2022/09/07 08:39:28;;;;;;;6.47;4.23;;;21.90;84.10;;;;;;5024959;28;20952;-49
2022/09/07 08:42:03;;;;;;;4.10;3.70;;;22.00;83.10;;;;;;5026416;28;20478;-50
2022/09/07 08:44:39;;;;;;;5.47;3.30;;;22.00;83.30;;;;;;5028168;28;20528;-50
2022/09/07 08:47:10;;;;;;;8.30;4.37;;;22.10;83.10;;;;;;5020891;28;21047;-50
2022/09/07 08:50:14;;;;;;;6.57;3.97;;;22.20;83.10;;;;;;5026655;28;20536;-50
2022/09/07 08:52:54;;;;;;;6.33;4.07;;;22.20;82.50;;;;;;5028986;28;20482;-50
2022/09/07 08:55:35;;;;;;;3.57;3.27;;;22.30;82.40;;;;;;5029362;28;20533;-50
2022/09/07 08:58:27;;;;;;;8.50;4.60;;;22.30;82.20;;;;;;5027348;28;20479;-51
2022/09/07 09:01:19;;;;;;;5.30;3.50;;;22.40;82.10;;;;;;5018508;28;20454;-51
2022/09/07 09:04:05;;;;;;;5.27;4.20;;;22.60;79.50;;;;;;5019338;28;20974;-51
2022/09/07 09:07:01;;;;;;;5.67;4.00;;;22.60;79.90;;;;;;5015112;28;20871;-51
2022/09/07 09:09:30;;;;;;;3.57;3.27;;;22.50;80.60;;;;;;5017141;28;20458;-51
2022/09/07 09:12:13;;;;;;;6.07;4.13;;;22.50;80.70;;;;;;5016613;28;20530;-51
2022/09/07 09:14:58;;;;;;;4.47;3.60;;;22.50;80.90;;;;;;5014436;28;20482;-48
2022/09/07 09:17:50;;;;;;;6.40;4.27;;;22.50;81.00;;;;;;5017955;28;20890;-49
2022/09/07 09:20:23;;;;;;;6.80;3.47;;;22.50;80.90;;;;;;5018336;28;20520;-50
2022/09/07 09:22:55;;;;;;;5.47;3.43;;;22.50;80.90;;;;;;5016499;28;20464;-50
2022/09/07 09:25:30;;;;;;;4.00;3.60;;;22.50;81.10;;;;;;5012983;28;20869;-50
2022/09/07 09:27:57;;;;;;;6.83;3.93;;;22.50;81.10;;;;;;5013750;28;20954;-50
2022/09/07 09:30:24;;;;;;;6.57;3.80;;;22.50;81.90;;;;;;5017990;28;20455;-48
2022/09/07 09:33:19;;;;;;;5.50;4.20;;;22.50;81.70;;;;;;5021969;28;20490;-48
2022/09/07 09:35:48;;;;;;;7.40;3.70;;;22.60;81.50;;;;;;5020364;28;20455;-48
2022/09/07 09:38:32;;;;;;;11.17;4.97;;;22.80;80.70;;;;;;5017505;28;20934;-49
2022/09/07 09:41:04;;;;;;;5.93;3.40;;;22.80;79.90;;;;;;5017894;28;20462;-48
2022/09/07 09:43:45;;;;;;;4.53;3.90;;;22.90;80.30;;;;;;5019926;28;20470;-49
2022/09/07 09:46:33;;;;;;;6.80;3.70;;;23.00;80.00;;;;;;5017882;28;20863;-48
2022/09/07 09:49:15;;;;;;;6.07;4.10;;;23.10;79.20;;;;;;5022050;28;20465;-48
2022/09/07 09:51:45;;;;;;;3.93;3.63;;;23.10;79.00;;;;;;5011952;28;20471;-48
2022/09/07 09:54:41;;;;;;;4.67;4.07;;;23.20;78.80;;;;;;5011702;28;20543;-48
2022/09/07 09:57:37;;;;;;;4.70;4.07;;;23.10;78.30;;;;;;5012274;28;20481;-48
2022/09/07 10:00:05;;;;;;;5.87;3.70;;;23.20;78.50;;;;;;5016514;28;20462;-48
2022/09/07 10:02:38;;;;;;;5.13;3.70;;;23.30;78.60;;;;;;5018895;28;20465;-48
2022/09/07 10:05:29;;;;;;;3.80;3.43;;;23.40;78.60;;;;;;5017753;28;20466;-49
2022/09/07 10:07:56;;;;;;;5.50;3.73;;;23.70;76.50;;;;;;5016718;28;20466;-49
2022/09/07 10:10:25;;;;;;;6.43;4.13;;;23.80;76.70;;;;;;5018999;28;20545;-48
2022/09/07 10:12:53;;;;;;;5.77;4.00;;;23.90;76.50;;;;;;5002531;28;20557;-49
2022/09/07 10:15:34;;;;;;;7.20;3.67;;;23.90;76.50;;;;;;5016933;28;20513;-48
2022/09/07 10:18:13;;;;;;;4.57;3.60;;;24.00;76.50;;;;;;5013901;28;20456;-48
2022/09/07 10:20:40;;;;;;;4.30;3.50;;;24.10;76.40;;;;;;5019444;28;20548;-49
2022/09/07 10:23:22;;;;;;;5.10;3.60;;;24.20;76.50;;;;;;5020099;28;20444;-49
2022/09/07 10:25:49;;;;;;;6.10;3.30;;;24.40;75.50;;;;;;5019356;28;20447;-48
2022/09/07 10:28:20;;;;;;;4.43;3.90;;;24.50;75.20;;;;;;5017444;28;20458;-49
2022/09/07 10:30:49;;;;;;;3.57;2.77;;;24.70;73.40;;;;;;5018300;28;20550;-49
2022/09/07 10:33:24;;;;;;;3.90;2.70;;;24.80;72.90;;;;;;5016854;28;20859;-49
2022/09/07 10:35:57;;;;;;;4.13;3.73;;;25.00;72.60;;;;;;5018787;28;20498;-49
2022/09/07 10:38:27;;;;;;;3.50;3.20;;;25.10;71.90;;;;;;5015770;28;20516;-49
2022/09/07 10:41:00;;;;;;;6.10;3.83;;;25.20;71.80;;;;;;5015867;28;20455;-49
2022/09/07 10:43:43;;;;;;;7.70;3.50;;;25.20;72.50;;;;;;5015890;28;20506;-49
2022/09/07 10:46:32;;;;;;;5.63;3.90;;;25.20;72.20;;;;;;5016837;28;20571;-49
2022/09/07 10:49:44;;;;;;;4.43;3.40;;;25.10;72.10;;;;;;5022313;28;20474;-49
2022/09/07 10:52:43;;;;;;;6.90;3.97;;;25.00;72.10;;;;;;5019176;28;20482;-49
2022/09/07 10:55:25;;;;;;;3.97;3.57;;;25.70;70.90;;;;;;5018532;28;20504;-48
2022/09/07 10:58:04;;;;;;;4.93;3.90;;;26.90;67.70;;;;;;5016703;28;20482;-49
2022/09/07 11:00:53;;;;;;;5.20;3.20;;;27.50;65.20;;;;;;5018798;28;20721;-48
2022/09/07 11:03:25;;;;;;;3.67;3.37;;;27.80;64.30;;;;;;5010398;28;20467;-49
2022/09/07 11:06:28;;;;;;;4.27;3.83;;;27.60;64.60;;;;;;5024096;28;20213;-49
2022/09/07 11:09:19;;;;;;;4.03;3.43;;;27.20;65.40;;;;;;5015442;28;20499;-49
2022/09/07 11:12:06;;;;;;;3.60;3.30;;;26.80;66.00;;;;;;5020117;28;20494;-49
2022/09/07 11:15:13;;;;;;;4.23;3.83;;;26.40;66.80;;;;;;5019717;28;20485;-49
2022/09/07 11:17:57;;;;;;;6.50;3.90;;;26.00;67.70;;;;;;5017988;28;20499;-49
2022/09/07 11:20:36;;;;;;;6.07;4.40;;;25.70;68.80;;;;;;5021398;28;21035;-49
2022/09/07 11:23:21;;;;;;;5.63;4.27;;;25.60;68.90;;;;;;5013608;28;20596;-48
2022/09/07 11:26:14;;;;;;;5.63;3.73;;;25.30;69.60;;;;;;5018384;28;21106;-49
2022/09/07 11:28:45;;;;;;;4.53;4.13;;;25.20;70.00;;;;;;4987939;28;20490;-49
2022/09/07 11:31:17;;;;;;;5.07;4.40;;;25.10;70.50;;;;;;5016503;28;20847;-49
2022/09/07 11:34:05;;;;;;;5.13;3.90;;;25.00;70.90;;;;;;5022779;28;20975;-49
2022/09/07 11:37:36;;;;;;;5.17;4.23;;;24.90;71.10;;;;;;5013686;28;20538;-48
2022/09/07 11:40:12;;;;;;;5.40;3.70;;;24.80;70.80;;;;;;4975228;28;20490;-48
2022/09/07 11:42:52;;;;;;;6.90;4.60;;;24.80;70.90;;;;;;4965210;28;20459;-49
2022/09/07 11:45:27;;;;;;;6.23;4.40;;;24.90;71.30;;;;;;4999862;28;20483;-48
2022/09/07 11:48:02;;;;;;;3.90;3.50;;;25.00;70.90;;;;;;5020813;28;20982;-48
2022/09/07 11:50:35;;;;;;;4.53;4.00;;;24.90;70.30;;;;;;5019842;28;20483;-49
2022/09/07 11:53:05;;;;;;;6.20;3.40;;;25.00;70.00;;;;;;5016653;28;20556;-49
2022/09/07 11:55:37;;;;;;;4.47;4.07;;;25.00;70.10;;;;;;5014854;28;21400;-48
2022/09/07 11:58:40;;;;;;;6.43;3.80;;;25.00;68.20;;;;;;5012198;28;20480;-48
2022/09/07 12:01:12;;;;;;;4.63;3.30;;;25.00;68.60;;;;;;4991551;28;20985;-49
2022/09/07 12:04:04;;;;;;;5.17;4.60;;;24.90;69.10;;;;;;5013645;28;20512;-48
2022/09/07 12:06:52;;;;;;;5.27;4.07;;;24.80;69.70;;;;;;5010665;28;20470;-48
2022/09/07 12:09:21;;;;;;;3.30;2.90;;;24.70;70.20;;;;;;5010003;28;20505;-48
2022/09/07 12:12:07;;;;;;;3.73;3.43;;;24.60;70.20;;;;;;5011259;28;20466;-48
2022/09/07 12:15:05;;;;;;;4.40;4.00;;;24.60;68.80;;;;;;5014044;28;20483;-48
2022/09/07 12:17:38;;;;;;;3.63;3.33;;;24.60;69.20;;;;;;4991761;28;20663;-49
2022/09/07 12:20:17;;;;;;;4.23;3.57;;;24.60;69.70;;;;;;5015832;28;20487;-48
2022/09/07 12:22:58;;;;;;;7.40;4.10;;;24.70;70.00;;;;;;5024215;28;20455;-49
2022/09/07 12:25:32;;;;;;;4.03;3.70;;;24.80;69.10;;;;;;5018479;28;20469;-48
2022/09/07 12:27:59;;;;;;;5.13;3.43;;;24.80;68.90;;;;;;5014348;28;20463;-48
2022/09/07 12:30:26;;;;;;;3.80;3.50;;;24.80;69.70;;;;;;5028734;28;20466;-48
2022/09/07 12:33:03;;;;;;;3.00;2.80;;;24.90;68.20;;;;;;5017227;28;20538;-49
2022/09/07 12:35:33;;;;;;;4.70;4.10;;;24.90;67.40;;;;;;5015085;28;20970;-48
2022/09/07 12:38:02;;;;;;;3.47;2.60;;;25.00;67.10;;;;;;5019507;28;20924;-49
2022/09/07 12:40:34;;;;;;;3.93;3.53;;;25.00;66.10;;;;;;5010513;28;20485;-48
2022/09/07 12:43:13;;;;;;;3.53;3.23;;;25.00;67.00;;;;;;5015612;28;20894;-49
2022/09/07 12:45:40;;;;;;;4.57;3.03;;;25.00;66.40;;;;;;5016625;28;20483;-48
2022/09/07 12:48:16;;;;;;;3.47;3.17;;;25.00;67.00;;;;;;5017800;28;20949;-49
2022/09/07 12:50:59;;;;;;;3.50;3.00;;;24.90;67.20;;;;;;5016470;28;20467;-48
2022/09/07 12:53:45;;;;;;;4.30;2.50;;;24.90;67.40;;;;;;5017988;28;20913;-49
2022/09/07 12:56:26;;;;;;;3.33;2.10;;;24.90;66.80;;;;;;5018930;28;21121;-48
2022/09/07 12:59:10;;;;;;;2.90;2.10;;;25.00;64.70;;;;;;5012078;28;20959;-49
2022/09/07 13:02:17;;;;;;;2.33;2.17;;;24.90;65.30;;;;;;5014681;28;20862;-49
2022/09/07 13:04:55;;;;;;;2.90;2.30;;;24.80;66.90;;;;;;5013546;28;21043;-49
2022/09/07 13:07:55;;;;;;;3.43;2.57;;;24.80;67.00;;;;;;5013951;28;20532;-48
2022/09/07 13:10:45;;;;;;;2.33;2.10;;;24.80;66.00;;;;;;5010544;28;20462;-48
2022/09/07 13:13:27;;;;;;;2.20;2.00;;;24.80;65.40;;;;;;5011011;28;20545;-49
2022/09/07 13:16:13;;;;;;;3.90;2.13;;;24.90;63.60;;;;;;5015062;28;20561;-49
2022/09/07 13:18:42;;;;;;;2.20;2.00;;;24.80;64.90;;;;;;5015712;28;20450;-49
2022/09/07 13:21:10;;;;;;;5.90;2.03;;;24.80;64.20;;;;;;5016181;28;20455;-49
2022/09/07 13:23:42;;;;;;;2.70;2.50;;;24.80;64.10;;;;;;5013016;28;20459;-48